createdAt,value
2022-10-24T00:01:26.755Z,27.08
2022-10-24T00:03:54.090Z,27.67
2022-10-24T00:06:22.043Z,29.40
2022-10-24T00:08:50.331Z,29.30
2022-10-24T00:11:23.306Z,27.20
2022-10-24T00:13:52.566Z,27.48
2022-10-24T00:16:20.395Z,26.00
2022-10-24T00:18:48.413Z,35.00
2022-10-24T00:21:17.962Z,28.73
2022-10-24T00:23:45.508Z,25.83
2022-10-24T00:26:13.880Z,31.52
2022-10-24T00:28:41.805Z,26.25
2022-10-24T00:31:16.218Z,30.40
2022-10-24T00:33:45.193Z,31.27
2022-10-24T00:36:19.905Z,27.63
2022-10-24T00:38:48.524Z,25.63
2022-10-24T00:41:19.162Z,29.60
2022-10-24T00:43:47.151Z,26.05
2022-10-24T00:46:18.019Z,28.00
2022-10-24T00:48:55.088Z,30.92
2022-10-24T00:51:28.878Z,28.80
2022-10-24T00:54:08.737Z,29.38
2022-10-24T00:56:44.132Z,27.52
2022-10-24T00:59:15.214Z,23.52
2022-10-24T01:01:46.239Z,24.38
2022-10-24T01:04:16.889Z,26.95
2022-10-24T01:07:17.560Z,25.95
2022-10-24T01:10:18.800Z,25.42
2022-10-24T01:13:40.379Z,23.35
2022-10-24T01:16:17.313Z,25.33
2022-10-24T01:19:11.408Z,26.65
2022-10-24T01:21:55.778Z,24.85
2022-10-24T01:25:10.209Z,23.40
2022-10-24T01:28:00.181Z,26.60
2022-10-24T01:30:37.670Z,25.45
2022-10-24T01:33:30.165Z,21.80
2022-10-24T01:36:18.249Z,19.35
2022-10-24T01:38:59.576Z,23.25
2022-10-24T01:41:31.278Z,26.67
2022-10-24T01:44:15.136Z,23.83
2022-10-24T01:46:52.102Z,23.30
2022-10-24T01:49:28.715Z,26.33
2022-10-24T01:52:02.452Z,20.92
2022-10-24T01:54:31.870Z,26.73
2022-10-24T01:56:59.367Z,24.75
2022-10-24T01:59:29.278Z,23.70
2022-10-24T02:02:12.243Z,23.05
2022-10-24T02:04:48.435Z,23.60
2022-10-24T02:07:18.558Z,23.88
2022-10-24T02:09:53.598Z,23.83
2022-10-24T02:12:25.614Z,22.00
2022-10-24T02:15:04.592Z,22.88
2022-10-24T02:17:32.362Z,21.40
2022-10-24T02:20:00.706Z,22.25
2022-10-24T02:22:47.849Z,22.17
2022-10-24T02:25:27.950Z,23.15
2022-10-24T02:28:10.342Z,21.77
2022-10-24T02:30:50.493Z,21.83
2022-10-24T02:33:18.882Z,22.10
2022-10-24T02:35:49.136Z,30.77
2022-10-24T02:38:29.016Z,24.00
2022-10-24T02:41:00.193Z,26.27
2022-10-24T02:43:30.542Z,27.85
2022-10-24T02:45:59.514Z,27.30
2022-10-24T02:48:38.918Z,25.05
2022-10-24T02:51:07.576Z,32.05
2022-10-24T02:53:37.286Z,27.52
2022-10-24T02:56:05.154Z,26.42
2022-10-24T02:58:32.507Z,33.38
2022-10-24T03:00:59.947Z,30.55
2022-10-24T03:03:27.300Z,28.15
2022-10-24T03:05:54.549Z,28.35
2022-10-24T03:08:22.046Z,30.45
2022-10-24T03:10:49.292Z,29.13
2022-10-24T03:13:16.832Z,30.15
2022-10-24T03:15:44.333Z,39.10
2022-10-24T03:18:11.821Z,45.70
2022-10-24T03:20:39.133Z,46.42
2022-10-24T03:23:08.317Z,42.78
2022-10-24T03:25:35.836Z,48.08
2022-10-24T03:28:03.369Z,49.10
2022-10-24T03:30:30.596Z,42.28
2022-10-24T03:32:57.915Z,42.95
2022-10-24T03:35:25.285Z,39.38
2022-10-24T03:37:52.502Z,42.15
2022-10-24T03:40:19.983Z,42.08
2022-10-24T03:42:47.670Z,37.70
2022-10-24T03:45:15.861Z,37.42
2022-10-24T03:47:43.230Z,35.08
2022-10-24T03:50:10.451Z,34.05
2022-10-24T03:52:37.698Z,34.10
2022-10-24T03:55:05.558Z,30.20
2022-10-24T03:57:32.978Z,34.28
2022-10-24T04:00:06.757Z,32.72
2022-10-24T04:02:34.295Z,28.73
2022-10-24T04:05:01.760Z,29.27
2022-10-24T04:07:29.241Z,38.47
2022-10-24T04:09:58.126Z,33.03
2022-10-24T04:12:26.663Z,34.88
2022-10-24T04:17:21.121Z,37.53
2022-10-24T04:19:48.721Z,36.45
2022-10-24T04:22:16.700Z,38.78
2022-10-24T04:24:43.955Z,36.00
2022-10-24T04:27:11.270Z,31.25
2022-10-24T04:29:38.493Z,27.92
2022-10-24T04:32:05.981Z,28.65
2022-10-24T04:34:37.078Z,27.33
2022-10-24T04:37:04.986Z,23.42
2022-10-24T04:39:32.374Z,30.52
2022-10-24T04:42:00.024Z,23.55
2022-10-24T04:44:27.608Z,24.38
2022-10-24T04:46:54.838Z,25.38
2022-10-24T04:49:22.088Z,23.67
2022-10-24T04:51:49.409Z,27.80
2022-10-24T04:54:16.784Z,27.27
2022-10-24T04:56:44.035Z,31.50
2022-10-24T04:59:12.640Z,24.67
2022-10-24T05:01:39.908Z,25.02
2022-10-24T05:04:08.471Z,25.52
2022-10-24T05:06:40.296Z,28.20
2022-10-24T05:09:10.079Z,29.17
2022-10-24T05:11:38.427Z,28.98
2022-10-24T05:16:33.533Z,32.00
2022-10-24T05:19:00.861Z,34.03
2022-10-24T05:21:28.469Z,38.60
2022-10-24T05:23:55.950Z,34.50
2022-10-24T05:26:23.297Z,37.63
2022-10-24T05:28:52.535Z,38.33
2022-10-24T05:31:20.564Z,28.58
2022-10-24T05:33:47.929Z,36.08
2022-10-24T05:36:16.308Z,30.23
2022-10-24T05:41:10.990Z,28.63
2022-10-24T05:43:38.594Z,28.47
2022-10-24T05:46:07.475Z,25.25
2022-10-24T05:48:36.261Z,28.02
2022-10-24T05:51:05.966Z,25.33
2022-10-24T05:53:33.196Z,29.23
2022-10-24T05:56:00.515Z,29.48
2022-10-24T05:58:27.848Z,35.30
2022-10-24T06:00:55.255Z,38.03
2022-10-24T06:03:23.624Z,38.72
2022-10-24T06:05:51.551Z,37.88
2022-10-24T06:08:19.180Z,39.03
2022-10-24T06:10:50.134Z,46.38
2022-10-24T06:13:18.494Z,38.63
2022-10-24T06:15:46.046Z,44.28
2022-10-24T06:18:13.423Z,51.63
2022-10-24T06:20:40.999Z,47.87
2022-10-24T06:23:08.386Z,50.60
2022-10-24T06:25:36.082Z,52.72
2022-10-24T06:28:03.585Z,51.17
2022-10-24T06:30:30.964Z,54.45
2022-10-24T06:32:58.297Z,55.35
2022-10-24T06:35:25.572Z,63.83
2022-10-24T06:37:54.103Z,62.38
2022-10-24T06:40:23.138Z,75.28
2022-10-24T06:42:50.746Z,64.00
2022-10-24T06:45:20.859Z,52.15
2022-10-24T06:47:51.807Z,50.05
2022-10-24T06:50:21.539Z,57.22
2022-10-24T06:52:49.206Z,48.15
2022-10-24T06:55:18.078Z,49.10
2022-10-24T06:57:45.620Z,57.03
2022-10-24T07:00:15.195Z,62.17
2022-10-24T07:02:42.753Z,59.28
2022-10-24T07:05:12.830Z,59.53
2022-10-24T07:07:42.589Z,52.70
2022-10-24T07:10:14.331Z,59.10
2022-10-24T07:12:43.558Z,66.38
2022-10-24T07:15:12.459Z,59.05
2022-10-24T07:17:45.242Z,55.38
2022-10-24T07:20:13.903Z,60.80
2022-10-24T07:22:42.156Z,59.75
2022-10-24T07:25:10.141Z,53.47
2022-10-24T07:27:37.566Z,61.38
2022-10-24T07:30:08.066Z,54.80
2022-10-24T07:32:35.741Z,59.70
2022-10-24T07:35:03.124Z,55.95
2022-10-24T07:37:30.570Z,62.38
2022-10-24T07:39:57.921Z,57.70
2022-10-24T07:42:25.394Z,56.08
2022-10-24T07:44:52.630Z,53.30
2022-10-24T07:47:19.864Z,58.35
2022-10-24T07:49:47.157Z,58.38
2022-10-24T07:52:14.678Z,52.75
2022-10-24T07:54:41.979Z,55.53
2022-10-24T07:57:09.245Z,55.15
2022-10-24T07:59:42.079Z,54.25
2022-10-24T08:02:12.915Z,55.55
2022-10-24T08:04:41.111Z,55.85
2022-10-24T08:07:13.681Z,48.35
2022-10-24T08:09:46.173Z,51.28
2022-10-24T08:12:14.139Z,42.80
2022-10-24T08:14:42.448Z,52.38
2022-10-24T08:17:10.778Z,54.88
2022-10-24T08:19:44.063Z,53.35
2022-10-24T08:22:12.415Z,49.08
2022-10-24T08:24:39.820Z,52.10
2022-10-24T08:27:08.687Z,48.00
2022-10-24T08:29:36.682Z,44.45
2022-10-24T08:32:06.810Z,47.65
2022-10-24T08:34:34.756Z,42.97
2022-10-24T08:37:01.973Z,44.03
2022-10-24T08:39:29.340Z,44.72
2022-10-24T08:42:12.850Z,38.60
2022-10-24T08:44:43.946Z,43.80
2022-10-24T08:50:29.386Z,65.30
2022-10-24T08:53:09.380Z,72.03
2022-10-24T08:55:50.004Z,93.95
2022-10-24T08:58:35.692Z,100.18
2022-10-24T09:01:13.358Z,98.63
2022-10-24T09:04:00.312Z,108.55
2022-10-24T09:06:32.125Z,106.93
2022-10-24T09:09:23.381Z,110.22
2022-10-24T09:12:01.936Z,111.43
2022-10-24T09:14:36.887Z,109.25
2022-10-24T09:17:20.435Z,117.18
2022-10-24T09:19:58.153Z,103.93
2022-10-24T09:22:30.626Z,101.47
2022-10-24T09:25:06.478Z,87.07
2022-10-24T09:27:40.377Z,89.40
2022-10-24T09:30:19.403Z,78.35
2022-10-24T09:32:47.372Z,79.57
2022-10-24T09:35:25.872Z,86.30
2022-10-24T09:38:18.983Z,87.93
2022-10-24T09:40:52.758Z,80.93
2022-10-24T09:43:43.574Z,82.13
2022-10-24T09:46:26.600Z,78.65
2022-10-24T09:49:15.339Z,67.80
2022-10-24T09:51:48.159Z,72.97
2022-10-24T09:54:28.030Z,71.85
2022-10-24T09:57:16.816Z,67.20
2022-10-24T09:59:48.157Z,63.50
2022-10-24T10:02:24.408Z,68.53
2022-10-24T10:05:04.204Z,68.63
2022-10-24T10:07:37.232Z,57.33
2022-10-24T10:10:07.200Z,61.90
2022-10-24T10:12:48.313Z,58.35
2022-10-24T10:15:39.743Z,50.75
2022-10-24T10:18:40.189Z,44.70
2022-10-24T10:21:21.508Z,33.40
2022-10-24T10:23:51.637Z,35.10
2022-10-24T10:26:29.465Z,32.70
2022-10-24T10:29:20.908Z,32.05
2022-10-24T10:32:18.308Z,30.13
2022-10-24T10:35:04.763Z,26.83
2022-10-24T10:37:38.930Z,22.02
2022-10-24T10:40:25.949Z,25.48
2022-10-24T10:43:29.884Z,23.50
2022-10-24T10:46:42.533Z,24.58
2022-10-24T10:49:32.630Z,20.17
2022-10-24T10:52:14.593Z,19.80
2022-10-24T10:55:12.194Z,22.67
2022-10-24T10:58:09.827Z,20.25
2022-10-24T11:00:52.513Z,18.42
2022-10-24T11:03:39.630Z,17.00
2022-10-24T11:06:07.374Z,18.27
2022-10-24T11:09:08.254Z,21.40
2022-10-24T11:11:43.486Z,19.08
2022-10-24T11:14:28.727Z,15.70
2022-10-24T11:17:04.620Z,23.98
2022-10-24T11:20:26.219Z,22.42
2022-10-24T11:23:07.497Z,24.17
2022-10-24T11:25:44.946Z,30.17
2022-10-24T11:28:25.788Z,29.25
2022-10-24T11:31:23.387Z,27.00
2022-10-24T11:36:54.964Z,35.30
2022-10-24T12:46:09.391Z,41.75
2022-10-24T12:48:44.812Z,39.60
2022-10-24T12:51:54.386Z,39.25
2022-10-24T12:54:39.750Z,42.28
2022-10-24T12:57:07.024Z,42.28
2022-10-24T13:00:01.533Z,40.35
2022-10-24T13:03:23.112Z,40.45
2022-10-24T13:06:28.945Z,43.70
2022-10-24T13:09:16.501Z,38.20
2022-10-24T13:12:28.692Z,39.28
2022-10-24T13:15:37.817Z,38.25
2022-10-24T13:18:21.056Z,33.35
2022-10-24T13:21:21.457Z,37.17
2022-10-24T13:23:50.635Z,40.58
2022-10-24T13:26:49.809Z,35.72
2022-10-24T13:29:29.234Z,36.95
2022-10-24T13:32:19.967Z,42.05
2022-10-24T13:34:52.431Z,36.38
2022-10-24T13:37:44.692Z,30.75
2022-10-24T13:40:23.664Z,38.70
2022-10-24T13:43:12.781Z,34.33
2022-10-24T13:46:00.195Z,37.83
2022-10-24T13:48:38.064Z,34.73
2022-10-24T13:51:17.854Z,40.63
2022-10-24T13:54:09.379Z,35.05
2022-10-24T13:56:41.099Z,36.60
2022-10-24T13:59:38.969Z,39.50
2022-10-24T14:02:19.412Z,36.13
2022-10-24T14:04:51.169Z,36.75
2022-10-24T14:07:29.145Z,36.22
2022-10-24T14:10:14.784Z,39.13
2022-10-24T14:12:44.933Z,38.30
2022-10-24T14:15:22.349Z,39.22
2022-10-24T14:17:57.744Z,35.92
2022-10-24T14:20:37.060Z,43.53
2022-10-24T14:23:35.448Z,40.00
2022-10-24T14:28:58.801Z,42.90
2022-10-24T14:31:38.177Z,43.90
2022-10-24T14:34:09.717Z,44.25
2022-10-24T14:36:39.703Z,39.72
2022-10-24T14:39:07.714Z,48.88
2022-10-24T14:41:41.055Z,44.50
2022-10-24T14:44:15.939Z,51.95
2022-10-24T14:46:46.745Z,40.38
2022-10-24T14:49:26.440Z,41.88
2022-10-24T14:51:59.714Z,47.28
2022-10-24T14:54:34.974Z,44.58
2022-10-24T14:57:13.702Z,43.05
2022-10-24T15:02:37.554Z,41.92
2022-10-24T15:05:23.641Z,47.25
2022-10-24T15:08:20.308Z,41.63
2022-10-24T15:10:46.323Z,50.35
2022-10-24T15:13:25.395Z,47.38
2022-10-24T15:15:59.718Z,43.65
2022-10-24T15:18:28.774Z,49.58
2022-10-24T15:21:16.139Z,40.30
2022-10-24T15:23:59.277Z,39.57
2022-10-24T15:26:41.009Z,43.75
2022-10-24T15:29:14.413Z,40.08
2022-10-24T15:31:48.342Z,40.92
2022-10-24T15:34:24.077Z,43.83
2022-10-24T15:36:54.650Z,43.53
2022-10-24T15:39:24.917Z,41.15
2022-10-24T15:42:01.171Z,43.28
2022-10-24T15:44:31.025Z,42.28
2022-10-24T15:46:58.388Z,54.25
2022-10-24T15:49:28.006Z,44.95
2022-10-24T15:51:55.717Z,42.45
2022-10-24T15:54:23.512Z,45.65
2022-10-24T15:56:51.059Z,45.78
2022-10-24T15:59:20.209Z,49.40
2022-10-24T16:02:00.651Z,45.38
2022-10-24T16:04:29.188Z,51.03
2022-10-24T16:06:57.532Z,49.65
2022-10-24T16:09:30.214Z,57.22
2022-10-24T16:11:57.996Z,49.35
2022-10-24T16:14:30.416Z,51.17
2022-10-24T16:16:59.141Z,54.92
2022-10-24T16:19:27.342Z,48.90
2022-10-24T16:21:59.894Z,55.63
2022-10-24T16:24:28.689Z,57.45
2022-10-24T16:26:56.344Z,52.13
2022-10-24T16:29:23.772Z,51.55
2022-10-24T16:31:51.635Z,53.20
2022-10-24T16:34:19.218Z,55.67
2022-10-24T16:36:46.679Z,56.67
2022-10-24T16:39:14.677Z,52.22
2022-10-24T16:41:46.261Z,61.78
2022-10-24T16:44:15.029Z,58.67
2022-10-24T16:46:42.282Z,57.05
2022-10-24T16:49:09.694Z,56.35
2022-10-24T16:51:40.517Z,55.58
2022-10-24T16:54:10.644Z,57.63
2022-10-24T16:56:39.155Z,49.90
2022-10-24T16:59:08.371Z,54.30
2022-10-24T17:01:37.956Z,56.08
2022-10-24T17:04:08.289Z,52.25
2022-10-24T17:06:36.453Z,56.72
2022-10-24T17:09:05.220Z,51.75
2022-10-24T17:11:45.036Z,56.10
2022-10-24T17:14:16.045Z,54.72
2022-10-24T17:16:44.618Z,55.22
2022-10-24T17:21:51.030Z,55.10
2022-10-24T17:24:25.554Z,55.80
2022-10-24T17:26:53.688Z,56.28
2022-10-24T17:29:34.861Z,54.80
2022-10-24T17:32:11.929Z,54.08
2022-10-24T17:34:41.366Z,56.35
2022-10-24T17:37:24.618Z,51.03
2022-10-24T17:40:06.076Z,50.47
2022-10-24T17:42:34.582Z,49.88
2022-10-24T17:45:02.197Z,55.78
2022-10-24T17:47:31.751Z,54.30
2022-10-24T17:49:59.244Z,48.35
2022-10-24T17:52:26.895Z,43.43
2022-10-24T17:54:54.225Z,44.90
2022-10-24T17:57:23.928Z,43.13
2022-10-24T17:59:51.403Z,54.88
2022-10-24T18:02:19.046Z,56.28
2022-10-24T18:04:46.552Z,58.15
2022-10-24T18:07:15.058Z,56.30
2022-10-24T18:09:42.621Z,53.08
2022-10-24T18:12:10.491Z,66.38
2022-10-24T18:14:42.253Z,59.78
2022-10-24T18:17:09.698Z,59.78
2022-10-24T18:19:37.092Z,61.00
2022-10-24T18:22:04.422Z,58.95
2022-10-24T18:24:31.759Z,53.30
2022-10-24T18:26:59.174Z,56.38
2022-10-24T18:29:26.527Z,61.03
2022-10-24T18:31:53.911Z,55.08
2022-10-24T18:34:21.409Z,53.77
2022-10-24T18:36:48.699Z,54.35
2022-10-24T18:39:16.192Z,58.13
2022-10-24T18:42:25.618Z,53.63
2022-10-24T18:44:53.345Z,50.72
2022-10-24T18:47:24.730Z,43.80
2022-10-24T18:49:53.700Z,41.03
2022-10-24T18:52:51.288Z,41.97
2022-10-24T18:55:25.311Z,45.78
2022-10-24T18:57:53.129Z,45.67
2022-10-24T19:00:28.625Z,48.33
2022-10-24T19:03:31.501Z,49.45
2022-10-24T19:06:26.869Z,49.80
2022-10-24T19:08:54.436Z,48.03
2022-10-24T19:11:24.199Z,51.13
2022-10-24T19:13:51.849Z,46.65
2022-10-24T19:16:24.688Z,45.10
2022-10-24T19:18:58.587Z,46.05
2022-10-24T19:21:38.522Z,46.78
2022-10-24T19:24:13.861Z,48.22
2022-10-24T19:26:45.546Z,55.60
2022-10-24T19:32:07.296Z,58.30
2022-10-24T19:34:43.152Z,56.30
2022-10-24T19:37:16.334Z,58.78
2022-10-24T19:39:54.430Z,62.08
2022-10-24T19:42:43.538Z,64.68
2022-10-24T19:45:12.382Z,56.92
2022-10-24T19:47:39.846Z,64.32
2022-10-24T19:50:08.314Z,60.55
2022-10-24T19:52:40.279Z,62.33
2022-10-24T19:55:08.064Z,62.75
2022-10-24T19:57:38.044Z,65.95
2022-10-24T20:00:06.410Z,67.13
2022-10-24T20:02:38.116Z,65.30
2022-10-24T20:05:06.216Z,60.58
2022-10-24T20:07:33.731Z,65.60
2022-10-24T20:10:01.239Z,65.65
2022-10-24T20:12:28.477Z,62.67
2022-10-24T20:14:55.912Z,72.90
2022-10-24T20:17:23.276Z,65.93
2022-10-24T20:19:50.792Z,72.95
2022-10-24T20:22:17.996Z,72.00
2022-10-24T20:24:45.334Z,68.40
2022-10-24T20:27:12.574Z,65.20
2022-10-24T20:29:40.091Z,74.18
2022-10-24T20:32:07.395Z,72.28
2022-10-24T20:34:34.700Z,70.45
2022-10-24T20:37:02.125Z,71.10
2022-10-24T20:39:29.468Z,66.03
2022-10-24T20:41:56.808Z,59.10
2022-10-24T20:44:24.247Z,60.00
2022-10-24T20:46:53.259Z,58.25
2022-10-24T20:49:20.616Z,53.78
2022-10-24T20:51:48.103Z,52.53
2022-10-24T20:54:15.831Z,56.92
2022-10-24T20:56:43.375Z,55.58
2022-10-24T20:59:14.731Z,50.22
2022-10-24T21:01:43.689Z,55.17
2022-10-24T21:04:14.659Z,43.58
2022-10-24T21:06:45.603Z,44.50
2022-10-24T21:09:13.102Z,47.38
2022-10-24T21:11:40.397Z,37.08
2022-10-24T21:14:12.707Z,40.08
2022-10-24T21:16:40.130Z,30.88
2022-10-24T21:19:07.608Z,31.83
2022-10-24T21:21:34.965Z,31.38
2022-10-24T21:24:05.787Z,36.40
2022-10-24T21:26:40.078Z,30.00
2022-10-24T21:29:20.916Z,32.78
2022-10-24T21:31:56.241Z,32.45
2022-10-24T21:34:27.811Z,26.25
2022-10-24T21:36:58.726Z,29.50
2022-10-24T21:39:26.045Z,26.73
2022-10-24T21:41:54.194Z,25.65
2022-10-24T21:44:23.465Z,31.00
2022-10-24T21:46:52.051Z,27.50
2022-10-24T21:49:19.631Z,33.20
2022-10-24T21:51:49.376Z,31.85
2022-10-24T21:54:23.695Z,31.52
2022-10-24T21:56:51.474Z,28.88
2022-10-24T21:59:21.910Z,28.25
2022-10-24T22:01:51.944Z,29.63
2022-10-24T22:04:20.654Z,27.83
2022-10-24T22:09:21.267Z,27.48
2022-10-24T22:11:48.744Z,30.13
2022-10-24T22:14:17.790Z,31.67
2022-10-24T22:16:45.913Z,28.60
2022-10-24T22:19:14.041Z,28.00
2022-10-24T22:21:48.325Z,31.35
2022-10-24T22:24:23.200Z,28.00
2022-10-24T22:26:52.038Z,29.58
2022-10-24T22:29:23.432Z,29.67
2022-10-24T22:31:53.214Z,31.95
2022-10-24T22:34:25.490Z,32.55
2022-10-24T22:37:24.716Z,28.42
2022-10-24T22:39:54.331Z,30.92
2022-10-24T22:42:22.237Z,35.25
2022-10-24T22:44:51.055Z,34.93
2022-10-24T22:47:39.068Z,32.45
2022-10-24T22:50:43.655Z,27.80
2022-10-24T22:53:14.706Z,33.40
2022-10-24T22:55:55.342Z,32.88
2022-10-24T22:58:23.111Z,37.97
2022-10-24T23:01:17.219Z,43.67
2022-10-24T23:04:22.937Z,35.42
2022-10-24T23:07:45.949Z,42.20
2022-10-24T23:10:21.436Z,38.20
2022-10-24T23:12:50.054Z,44.03
2022-10-24T23:15:20.453Z,45.80
2022-10-24T23:17:49.035Z,41.60
2022-10-24T23:20:39.344Z,44.95
2022-10-24T23:23:17.061Z,41.22
2022-10-24T23:26:13.995Z,44.58
2022-10-24T23:29:08.075Z,42.83
2022-10-24T23:31:35.955Z,41.42
2022-10-24T23:34:03.769Z,47.20
2022-10-24T23:36:31.467Z,42.28
2022-10-24T23:38:59.263Z,40.57
2022-10-24T23:41:27.096Z,39.05
2022-10-24T23:43:54.972Z,37.08
2022-10-24T23:46:38.095Z,34.75
2022-10-24T23:49:14.313Z,42.85
2022-10-24T23:51:51.229Z,40.88
2022-10-24T23:54:25.948Z,41.38
2022-10-24T23:56:53.795Z,37.75
2022-10-24T23:59:20.979Z,35.40
